x

Buzzards Bay, Ma (buzm3) Weather Station

12:00 - Wed 26th Apr 2017 All times are EDT. -4 hours from GMT.

  • Wind
    25mph, 28mph gusts
  • Luft Temp 51°f
  • Sea Pressure 1014.8mb
  • Buzzards Bay, Ma
  • Buzzards Bay, Ma

More Historic Weather Station data

Upgrade to MSW Pro to gain access to the past 30 days of data for over 8000 Wavebouys and Weather Stations around the globe.

Join Pro

Comparision Forecast

View Surf forecast
   
Mi 04/26 12:00 25 28 mph 1014.8mb 51f
Di 04/25 11:00 25 29 mph 1015.2mb 51f
10:00 25 26 mph 1016.3mb 51f
9:00 28 32 mph 1016.6mb 51f
8:00 31 34 mph 1016.6mb 52f
7:00 33 36 mph 1016.9mb 52f
6:00 30 33 mph 1017.8mb 52f
5:00 21 23 mph 1019mb 51f
4:00 18 21 mph 1020mb 51f
3:00 22 25 mph 1020.3mb 49f
2:00 28 30 mph 1020.8mb 48f
1:00 26 30 mph 1021.1mb 49f
12:00 22 25 mph 1022.1mb 48f
11:00 25 28 mph 1022.1mb 49f
10:00 30 32 mph 1022.5mb 50f
9:00 25 28 mph 1022.4mb 49f
8:00 25 26 mph 1022.3mb 49f
7:00 26 29 mph 1021.8mb 48f
6:00 21 22 mph 1022.1mb 48f
5:00 16 18 mph 1022mb 48f
4:00 18
mph
1021.6mb 48f
3:00 18 20 mph 1021.9mb 48f
2:00 15 16 mph 1022.2mb 47f
1:00 10 11 mph 1022.7mb 49f
12:00 15
mph
1022.6mb 49f
Mo 04/24 11:00 14
mph
1022.7mb 49f
10:00 13
mph
1022.5mb 48f
9:00 7 8 mph 1023.2mb 48f
8:00 11
mph
1022.6mb 47f
7:00 7 8 mph 1022.4mb 47f
6:00 9
mph
1022.8mb 47f
5:00 11 13 mph 1022.5mb 47f
4:00 8
mph
1022.5mb 47f
3:00 5
mph
1022.5mb 47f
2:00 6 7 mph 1023.1mb 47f
1:00 11 13 mph 1022.9mb 46f
12:00 8
mph
1023.2mb 46f
11:00 7 8 mph 1023.3mb 46f
10:00 9
mph
1023.2mb 46f
9:00 8
mph
1023.1mb 46f
8:00 10 11 mph 1022.7mb 46f
7:00 9 10 mph 1022mb 46f
6:00 10 11 mph 1021.7mb 45f
5:00 11 13 mph 1021.1mb 45f
4:00 13 14 mph 1020.9mb 45f
3:00 14 15 mph 1020.6mb 45f
2:00 11 13 mph 1020.9mb 45f
1:00 13 14 mph 1021.3mb 46f
12:00 10 11 mph 1021.2mb 46f
So 04/23 11:00 15 16 mph 1021.1mb 46f
10:00 14
mph
1021.2mb 46f
9:00 14 15 mph 1020.8mb 46f
8:00 13
mph
1020.2mb 46f
7:00 13 14 mph 1019.9mb 47f
6:00 13 14 mph 1019.6mb 47f
5:00 13 14 mph 1019.3mb 47f
4:00 16 17 mph 1019mb 47f
3:00 14 16 mph 1019.3mb 47f
2:00 10
mph
1020.1mb 48f
1:00 8
mph
1019.7mb 47f
12:00 6
mph
1019.8mb 47f
11:00 6
mph
1019.7mb 47f
10:00 9 10 mph 1019.5mb 46f
9:00 10 11 mph 1019mb 46f
8:00 15 16 mph 1018.8mb 45f
7:00 11
mph
1018.1mb 45f
6:00 13 14 mph 1017.2mb 44f
5:00 9 11 mph 1016.6mb 44f
4:00 6 7 mph 1016.2mb 44f
3:00 9 10 mph 1016.1mb 44f
2:00 13 14 mph 1016.1mb 44f
1:00 14 15 mph 1015.9mb 43f
12:00 11 13 mph 1015.2mb 43f
Sa 04/22 11:00 11 13 mph 1015mb 43f
10:00 11 13 mph 1014.8mb 44f
9:00 16 17 mph 1014.6mb 44f
8:00 13
mph
1014.3mb 44f
7:00 10 13 mph 1013.5mb 45f
6:00 15 16 mph 1013.4mb 45f
5:00 21 23 mph 1013.1mb 46f
4:00 13 14 mph 1012.5mb 46f
3:00 14 15 mph 1011.9mb 46f
2:00 18 21 mph 1012.6mb 46f
1:00 14 15 mph 1013mb 46f
12:00 16 17 mph 1013.1mb 46f
11:00 11 13 mph 1013.6mb 46f
10:00 17 20 mph 1012.7mb 46f
9:00 18 20 mph 1012.6mb 45f
8:00 17 18 mph 1012.6mb 45f
7:00 18 20 mph 1013mb 45f
6:00 22 23 mph 1012mb 45f